CheckWX is a tool to help pilots better visualize weather data.  It is not intended as a substitute for an official pre-flight weather briefing.

13:02:13 UTC

KPMU METAR
Panola County Airport
Batesville, Mississippi, USA
Current

27 mins ago

KPMU 021235Z AUTO 00000KT 10SM CLR 23/22 A2996 RMK AO2
Observed
Jul-2 @ 12:35 UTC
Visibility
10 SM
Flight Rules
VFR
Cloud Levels
  • Clear skies
Temperature
23°C / 73°F
Dewpoint
22°C / 72°F
Humidity
94%
Altimeter
29.96" Hg
Pressure
1014.52 hPa
Previous

47 mins ago

KPMU 021215Z AUTO 00000KT 9SM FEW100 23/22 A2996 RMK AO2
Observed
Jul-2 @ 12:15 UTC
Visibility
9 SM
Flight Rules
VFR
Cloud Levels
  • Few at 10,000' AGL
Temperature
23°C / 73°F
Dewpoint
22°C / 72°F
Humidity
94%
Altimeter
29.96" Hg
Pressure
1014.52 hPa
Previous

1 hour ago

KPMU 021155Z AUTO 00000KT 10SM SCT100 22/22 A2996 RMK AO2 LTG DSNT E
Observed
Jul-2 @ 11:55 UTC
Visibility
10 SM
Flight Rules
VFR
Cloud Levels
  • Scattered at 10,000' AGL
Temperature
22°C / 72°F
Dewpoint
22°C / 72°F
Humidity
100%
Altimeter
29.96" Hg
Pressure
1014.52 hPa